Time,TemperatureF,DewpointF,PressureIn,WindDirection,WindDirectionDegrees,WindSpeedMPH,WindSpeedGustMPH,Humidity,HourlyPrecipIn,Conditions,Clouds,dailyrainin,SolarRadiationWatts/m^2,SoftwareType,DateUTC
2013-05-20 00:14:00,48.1,45.0,29.80,NE,56,0.0,0.0,90,0.00,,,0.00,0,weatherlink.com 1.10,2013-05-20 04:14:00,
2013-05-20 00:29:00,48.0,46.0,29.80,NE,56,0.0,0.0,91,0.00,,,0.00,0,weatherlink.com 1.10,2013-05-20 04:29:00,
2013-05-20 00:44:00,47.8,45.0,29.80,NE,56,0.0,2.0,91,0.00,,,0.00,0,weatherlink.com 1.10,2013-05-20 04:44:00,
2013-05-20 00:59:00,47.7,45.0,29.79,NE,56,0.0,0.0,91,0.00,,,0.00,0,weatherlink.com 1.10,2013-05-20 04:59:00,
2013-05-20 01:14:00,47.9,46.0,29.80,ENE,57,0.0,4.0,91,0.00,,,0.00,0,weatherlink.com 1.10,2013-05-20 05:14:00,
2013-05-20 01:29:00,48.0,46.0,29.80,ENE,57,0.0,1.0,91,0.00,,,0.00,0,weatherlink.com 1.10,2013-05-20 05:29:00,
2013-05-20 01:44:00,48.1,46.0,29.79,ENE,57,0.0,0.0,92,0.00,,,0.00,0,weatherlink.com 1.10,2013-05-20 05:44:00,
2013-05-20 01:59:00,48.3,46.0,29.79,ENE,57,0.0,1.0,92,0.00,,,0.00,0,weatherlink.com 1.10,2013-05-20 05:59:00,
2013-05-20 02:14:00,48.6,46.0,29.78,ENE,57,0.0,1.0,92,0.00,,,0.00,0,weatherlink.com 1.10,2013-05-20 06:14:00,
2013-05-20 02:29:00,49.1,48.0,29.78,ENE,57,1.0,3.0,94,0.00,,,0.00,0,weatherlink.com 1.10,2013-05-20 06:29:00,
2013-05-20 02:44:00,49.2,48.0,29.77,ENE,57,1.0,2.0,94,0.00,,,0.00,0,weatherlink.com 1.10,2013-05-20 06:44:00,
2013-05-20 02:59:00,49.0,47.0,29.77,ENE,57,2.0,3.0,93,0.00,,,0.00,0,weatherlink.com 1.10,2013-05-20 06:59:00,
2013-05-20 03:14:00,47.6,46.0,29.77,ENE,57,4.0,4.0,93,0.00,,,0.00,0,weatherlink.com 1.10,2013-05-20 07:14:00,
2013-05-20 03:29:00,46.9,45.0,29.77,ENE,57,2.0,3.0,93,0.00,,,0.00,0,weatherlink.com 1.10,2013-05-20 07:29:00,
2013-05-20 03:44:00,46.4,45.0,29.77,ENE,57,0.0,2.0,94,0.00,,,0.00,0,weatherlink.com 1.10,2013-05-20 07:44:00,
2013-05-20 03:59:00,46.1,45.0,29.77,ENE,57,0.0,2.0,94,0.00,,,0.00,0,weatherlink.com 1.10,2013-05-20 07:59:00,
2013-05-20 04:14:00,45.9,44.0,29.77,ENE,57,0.0,2.0,94,0.00,,,0.00,0,weatherlink.com 1.10,2013-05-20 08:14:00,
2013-05-20 04:29:00,45.8,44.0,29.76,ENE,57,0.0,1.0,94,0.00,,,0.00,0,weatherlink.com 1.10,2013-05-20 08:29:00,
2013-05-20 04:44:00,45.8,44.0,29.76,ENE,57,0.0,2.0,94,0.00,,,0.00,0,weatherlink.com 1.10,2013-05-20 08:44:00,
2013-05-20 04:59:00,45.8,44.0,29.76,ENE,57,0.0,3.0,94,0.00,,,0.00,0,weatherlink.com 1.10,2013-05-20 08:59:00,
2013-05-20 05:14:00,45.8,44.0,29.76,ENE,57,0.0,2.0,94,0.00,,,0.00,0,weatherlink.com 1.10,2013-05-20 09:14:00,
2013-05-20 05:29:00,45.8,44.0,29.76,ENE,57,0.0,1.0,94,0.00,,,0.00,0,weatherlink.com 1.10,2013-05-20 09:29:00,
2013-05-20 05:44:00,45.9,44.0,29.75,ENE,57,0.0,1.0,94,0.00,,,0.00,0,weatherlink.com 1.10,2013-05-20 09:44:00,
2013-05-20 05:59:00,46.0,44.0,29.73,ENE,57,0.0,0.0,94,0.00,,,0.00,0,weatherlink.com 1.10,2013-05-20 09:59:00,
2013-05-20 06:14:00,46.1,45.0,29.77,SW,223,2.0,5.0,94,0.01,,,0.01,0,weatherlink.com 1.10,2013-05-20 10:14:00,
2013-05-20 06:29:00,46.4,45.0,29.75,SE,145,0.0,0.0,95,0.10,,,0.10,0,weatherlink.com 1.10,2013-05-20 10:29:00,
2013-05-20 06:44:00,46.5,45.0,29.74,SE,144,0.0,2.0,95,0.10,,,0.10,7,weatherlink.com 1.10,2013-05-20 10:44:00,
2013-05-20 06:59:00,46.4,45.0,29.71,SE,142,1.0,2.0,95,0.10,,,0.10,7,weatherlink.com 1.10,2013-05-20 10:59:00,
2013-05-20 07:14:00,46.4,45.0,29.67,ESE,110,1.0,4.0,95,0.07,,,0.10,7,weatherlink.com 1.10,2013-05-20 11:14:00,
2013-05-20 07:29:00,46.3,45.0,29.70,South,179,0.0,4.0,96,0.00,,,0.10,11,weatherlink.com 1.10,2013-05-20 11:29:00,
2013-05-20 07:44:00,46.3,45.0,29.69,South,179,0.0,2.0,96,0.00,,,0.10,26,weatherlink.com 1.10,2013-05-20 11:44:00,
2013-05-20 08:00:00,46.5,46.0,29.69,South,179,0.0,1.0,96,0.00,,,0.10,56,weatherlink.com 1.10,2013-05-20 12:00:00,
2013-05-20 08:15:00,47.5,47.0,29.69,South,179,0.0,2.0,97,0.00,,,0.10,105,weatherlink.com 1.10,2013-05-20 12:15:00,
2013-05-20 08:30:00,48.6,48.0,29.69,South,179,0.0,0.0,97,0.00,,,0.10,128,weatherlink.com 1.10,2013-05-20 12:30:00,
2013-05-20 08:45:00,50.3,50.0,29.69,South,179,2.0,3.0,97,0.00,,,0.10,269,weatherlink.com 1.10,2013-05-20 12:45:00,
2013-05-20 09:00:00,51.0,50.0,29.70,South,179,0.0,2.0,97,0.00,,,0.10,392,weatherlink.com 1.10,2013-05-20 13:00:00,
2013-05-20 09:15:00,52.2,51.0,29.71,South,179,0.0,3.0,97,0.00,,,0.10,255,weatherlink.com 1.10,2013-05-20 13:15:00,
2013-05-20 09:30:00,52.7,51.0,29.70,South,179,1.0,2.0,95,0.00,,,0.10,123,weatherlink.com 1.10,2013-05-20 13:30:00,
2013-05-20 09:45:00,53.4,52.0,29.70,South,179,2.0,2.0,95,0.00,,,0.10,214,weatherlink.com 1.10,2013-05-20 13:45:00,
2013-05-20 10:00:00,53.8,52.0,29.70,ENE,66,0.0,5.0,93,0.00,,,0.10,297,weatherlink.com 1.10,2013-05-20 14:00:00,
2013-05-20 10:15:00,54.0,52.0,29.71,ENE,66,2.0,3.0,92,0.00,,,0.10,190,weatherlink.com 1.10,2013-05-20 14:15:00,
2013-05-20 10:30:00,53.9,52.0,29.71,ENE,66,0.0,2.0,93,0.00,,,0.10,62,weatherlink.com 1.10,2013-05-20 14:30:00,
2013-05-20 10:45:00,54.3,53.0,29.72,ENE,66,0.0,2.0,94,0.01,,,0.11,95,weatherlink.com 1.10,2013-05-20 14:45:00,
2013-05-20 11:00:00,55.0,54.0,29.71,ENE,66,0.0,1.0,95,0.01,,,0.11,70,weatherlink.com 1.10,2013-05-20 15:00:00,
2013-05-20 11:15:00,55.7,55.0,29.70,ENE,66,1.0,1.0,96,0.01,,,0.11,209,weatherlink.com 1.10,2013-05-20 15:15:00,
2013-05-20 11:30:00,59.2,59.0,29.70,ESE,111,0.0,4.0,98,0.01,,,0.11,438,weatherlink.com 1.10,2013-05-20 15:30:00,
2013-05-20 11:45:00,63.0,63.0,29.70,SSW,211,3.0,7.0,98,0.00,,,0.11,339,weatherlink.com 1.10,2013-05-20 15:45:00,
2013-05-20 12:00:00,64.8,63.0,29.70,South,188,7.0,7.0,92,0.00,,,0.11,58,weatherlink.com 1.10,2013-05-20 16:00:00,
2013-05-20 12:15:00,64.8,62.0,29.70,SSE,166,4.0,12.0,90,0.00,,,0.11,160,weatherlink.com 1.10,2013-05-20 16:15:00,
2013-05-20 12:30:00,64.5,62.0,29.70,SSE,167,3.0,7.0,90,0.00,,,0.11,114,weatherlink.com 1.10,2013-05-20 16:30:00,
2013-05-20 12:45:00,61.0,56.0,29.70,NNE,30,2.0,5.0,83,0.00,,,0.11,123,weatherlink.com 1.10,2013-05-20 16:45:00,
2013-05-20 13:00:00,58.4,55.0,29.69,NNE,30,0.0,3.0,88,0.00,,,0.11,93,weatherlink.com 1.10,2013-05-20 17:00:00,
2013-05-20 13:15:00,57.6,55.0,29.68,NNE,30,0.0,3.0,90,0.00,,,0.11,91,weatherlink.com 1.10,2013-05-20 17:15:00,
2013-05-20 13:30:00,57.7,55.0,29.67,NNE,30,1.0,3.0,91,0.00,,,0.11,118,weatherlink.com 1.10,2013-05-20 17:30:00,
2013-05-20 13:45:00,57.9,55.0,29.67,NNE,30,1.0,3.0,90,0.00,,,0.11,128,weatherlink.com 1.10,2013-05-20 17:45:00,
2013-05-20 14:00:00,57.1,54.0,29.70,NNE,30,1.0,4.0,88,0.00,,,0.11,67,weatherlink.com 1.10,2013-05-20 18:00:00,
2013-05-20 14:15:00,55.8,52.0,29.70,NNE,30,0.0,3.0,88,0.00,,,0.11,95,weatherlink.com 1.10,2013-05-20 18:15:00,
2013-05-20 14:30:00,54.5,51.0,29.69,NNE,30,2.0,3.0,88,0.00,,,0.11,77,weatherlink.com 1.10,2013-05-20 18:30:00,
2013-05-20 14:45:00,53.2,51.0,29.68,NE,44,0.0,3.0,91,0.00,,,0.11,130,weatherlink.com 1.10,2013-05-20 18:45:00,
2013-05-20 15:00:00,54.1,52.0,29.68,NE,44,2.0,2.0,91,0.00,,,0.11,239,weatherlink.com 1.10,2013-05-20 19:00:00,
2013-05-20 15:15:00,56.2,53.0,29.67,NE,44,2.0,4.0,90,0.00,,,0.11,413,weatherlink.com 1.10,2013-05-20 19:15:00,
2013-05-20 15:30:00,57.8,54.0,29.66,NE,49,2.0,5.0,86,0.00,,,0.11,403,weatherlink.com 1.10,2013-05-20 19:30:00,
2013-05-20 15:45:00,59.0,55.0,29.66,NE,49,2.0,6.0,86,0.00,,,0.11,856,weatherlink.com 1.10,2013-05-20 19:45:00,
2013-05-20 16:00:00,57.7,53.0,29.65,NNE,31,4.0,6.0,83,0.00,,,0.11,768,weatherlink.com 1.10,2013-05-20 20:00:00,
2013-05-20 16:15:00,56.7,52.0,29.66,NNE,16,5.0,5.0,85,0.00,,,0.11,715,weatherlink.com 1.10,2013-05-20 20:15:00,
2013-05-20 16:30:00,55.3,51.0,29.65,NE,34,5.0,8.0,85,0.00,,,0.11,670,weatherlink.com 1.10,2013-05-20 20:30:00,
2013-05-20 16:45:00,54.1,51.0,29.66,NNE,15,4.0,8.0,88,0.00,,,0.11,703,weatherlink.com 1.10,2013-05-20 20:45:00,
2013-05-20 17:00:00,52.5,49.0,29.66,NE,56,5.0,9.0,89,0.00,,,0.11,281,weatherlink.com 1.10,2013-05-20 21:00:00,
2013-05-20 17:15:00,50.8,48.0,29.66,NE,38,2.0,6.0,89,0.00,,,0.11,309,weatherlink.com 1.10,2013-05-20 21:15:00,
2013-05-20 17:30:00,50.9,48.0,29.66,NE,39,0.0,4.0,90,0.00,,,0.11,262,weatherlink.com 1.10,2013-05-20 21:30:00,
2013-05-20 17:45:00,51.4,49.0,29.66,NNE,28,0.0,5.0,90,0.00,,,0.11,232,weatherlink.com 1.10,2013-05-20 21:45:00,
2013-05-20 18:00:00,51.1,48.0,29.67,NE,40,1.0,7.0,90,0.00,,,0.11,188,weatherlink.com 1.10,2013-05-20 22:00:00,
2013-05-20 18:16:00,51.0,48.0,29.67,NNE,32,2.0,5.0,90,0.00,,,0.11,174,weatherlink.com 1.10,2013-05-20 22:16:00,
2013-05-20 18:31:00,50.9,48.0,29.67,NNE,32,4.0,5.0,91,0.00,,,0.11,204,weatherlink.com 1.10,2013-05-20 22:31:00,
2013-05-20 18:46:00,50.8,48.0,29.67,NE,46,0.0,4.0,91,0.00,,,0.11,83,weatherlink.com 1.10,2013-05-20 22:46:00,
2013-05-20 19:01:00,51.0,49.0,29.65,NE,46,1.0,2.0,91,0.00,,,0.11,91,weatherlink.com 1.10,2013-05-20 23:01:00,
2013-05-20 19:16:00,51.5,49.0,29.66,NE,49,1.0,3.0,90,0.00,,,0.11,58,weatherlink.com 1.10,2013-05-20 23:16:00,
2013-05-20 19:31:00,51.8,49.0,29.67,NE,49,0.0,3.0,90,0.00,,,0.11,102,weatherlink.com 1.10,2013-05-20 23:31:00,
2013-05-20 19:46:00,51.7,49.0,29.67,NE,37,4.0,6.0,89,0.00,,,0.11,47,weatherlink.com 1.10,2013-05-20 23:46:00,
2013-05-20 20:01:00,49.9,47.0,29.67,ENE,71,3.0,5.0,90,0.00,,,0.11,53,weatherlink.com 1.10,2013-05-21 00:01:00,
2013-05-20 20:16:00,49.2,47.0,29.68,ENE,74,2.0,5.0,92,0.00,,,0.11,39,weatherlink.com 1.10,2013-05-21 00:16:00,
2013-05-20 20:31:00,49.0,47.0,29.68,ENE,74,2.0,3.0,92,0.00,,,0.11,19,weatherlink.com 1.10,2013-05-21 00:31:00,
2013-05-20 20:46:00,48.4,47.0,29.68,NE,38,0.0,4.0,93,0.00,,,0.11,12,weatherlink.com 1.10,2013-05-21 00:46:00,
2013-05-20 21:01:00,48.1,46.0,29.67,NE,38,0.0,3.0,93,0.00,,,0.11,0,weatherlink.com 1.10,2013-05-21 01:01:00,
2013-05-20 21:16:00,47.8,46.0,29.67,NE,38,0.0,1.0,94,0.00,,,0.11,0,weatherlink.com 1.10,2013-05-21 01:16:00,
2013-05-20 21:31:00,47.6,46.0,29.66,NE,38,0.0,3.0,94,0.00,,,0.11,0,weatherlink.com 1.10,2013-05-21 01:31:00,
2013-05-20 21:46:00,47.4,46.0,29.67,NE,38,2.0,2.0,95,0.00,,,0.11,0,weatherlink.com 1.10,2013-05-21 01:46:00,
2013-05-20 22:01:00,47.2,46.0,29.68,NE,38,0.0,2.0,95,0.00,,,0.11,0,weatherlink.com 1.10,2013-05-21 02:01:00,
2013-05-20 22:16:00,47.3,46.0,29.68,NE,38,0.0,0.0,96,0.00,,,0.11,0,weatherlink.com 1.10,2013-05-21 02:16:00,
2013-05-20 22:31:00,47.5,47.0,29.68,NE,38,0.0,1.0,96,0.00,,,0.11,0,weatherlink.com 1.10,2013-05-21 02:31:00,
2013-05-20 22:46:00,47.4,46.0,29.68,NE,38,0.0,2.0,95,0.00,,,0.11,0,weatherlink.com 1.10,2013-05-21 02:46:00,
2013-05-20 23:01:00,47.3,46.0,29.68,NE,38,0.0,1.0,95,0.00,,,0.11,0,weatherlink.com 1.10,2013-05-21 03:01:00,
2013-05-20 23:16:00,47.2,46.0,29.68,NE,38,0.0,1.0,95,0.00,,,0.11,0,weatherlink.com 1.10,2013-05-21 03:16:00,
2013-05-20 23:31:00,47.5,46.0,29.68,NE,38,0.0,3.0,95,0.00,,,0.11,0,weatherlink.com 1.10,2013-05-21 03:31:00,
2013-05-20 23:46:00,47.6,46.0,29.69,SSE,151,2.0,4.0,95,0.00,,,0.11,0,weatherlink.com 1.10,2013-05-21 03:46:00,